Time;durP1;ratioP1;P1;durP2;ratioP2;P2;SDS_P1;SDS_P2;PMS_P1;PMS_P2;Temp;Humidity;BMP_temperature;BMP_pressure;BME280_temperature;BME280_humidity;BME280_pressure;Samples;Min_cycle;Max_cycle;Signal;HPM_P1;HPM_P2
2022/07/21 00:01:09;;;;;;;7.13;3.78;;;;;;;;;;5094069;28;20044;-54
2022/07/21 00:03:39;;;;;;;6.35;4.13;;;;;;;;;;5092606;28;20048;-55
2022/07/21 00:06:09;;;;;;;5.72;4.40;;;;;;;;;;5094020;28;20083;-53
2022/07/21 00:08:38;;;;;;;6.28;3.90;;;;;;;;;;5093825;28;20044;-55
2022/07/21 00:11:08;;;;;;;7.28;4.28;;;;;;;;;;5093898;28;20048;-54
2022/07/21 00:13:38;;;;;;;7.25;4.70;;;;;;;;;;5093620;28;20484;-55
2022/07/21 00:16:06;;;;;;;20.17;5.75;;;;;;;;;;5093679;28;20077;-52
2022/07/21 00:18:36;;;;;;;9.73;4.25;;;;;;;;;;5093854;28;20052;-56
2022/07/21 00:21:06;;;;;;;11.45;4.47;;;;;;;;;;5093710;28;20048;-55
2022/07/21 00:23:36;;;;;;;6.50;4.90;;;;;;;;;;5093427;28;20464;-55
2022/07/21 00:26:07;;;;;;;7.57;4.55;;;;;;;;;;5093384;28;20052;-55
2022/07/21 00:28:37;;;;;;;7.57;4.75;;;;;;;;;;5093353;28;20052;-52
2022/07/21 00:31:13;;;;;;;6.05;4.22;;;;;;;;;;5093596;28;20051;-53
2022/07/21 00:36:24;;;;;;;9.00;4.90;;;;;;;;;;5093313;28;20376;-52
2022/07/21 00:38:56;;;;;;;8.52;4.40;;;;;;;;;;5106132;28;20052;-53
2022/07/21 00:41:24;;;;;;;6.90;4.50;;;;;;;;;;5112836;28;20051;-53
2022/07/21 00:43:51;;;;;;;6.32;4.30;;;;;;;;;;5093585;28;20063;-52
2022/07/21 00:46:26;;;;;;;8.40;4.43;;;;;;;;;;5093347;28;20082;-52
2022/07/21 00:48:56;;;;;;;5.95;4.03;;;;;;;;;;5093520;28;20047;-55
2022/07/21 00:54:23;;;;;;;6.28;3.90;;;;;;;;;;5093177;28;20062;-53
2022/07/21 00:56:52;;;;;;;8.77;4.05;;;;;;;;;;5093641;28;20047;-54
2022/07/21 00:59:22;;;;;;;6.75;4.20;;;;;;;;;;5093308;28;20052;-52
2022/07/21 01:01:52;;;;;;;5.72;3.95;;;;;;;;;;5092597;28;20047;-53
2022/07/21 01:04:22;;;;;;;10.50;4.70;;;;;;;;;;5092197;28;20066;-54
2022/07/21 01:06:52;;;;;;;10.43;4.88;;;;;;;;;;5092122;28;20070;-53
2022/07/21 01:09:35;;;;;;;9.02;4.40;;;;;;;;;;5092055;28;20048;-52
2022/07/21 01:12:04;;;;;;;6.00;3.90;;;;;;;;;;5092555;28;20109;-52
2022/07/21 01:14:32;;;;;;;7.25;3.83;;;;;;;;;;5093316;28;20062;-52
2022/07/21 01:17:00;;;;;;;7.50;4.53;;;;;;;;;;5093033;28;20105;-55
2022/07/21 01:19:30;;;;;;;5.32;4.07;;;;;;;;;;5092933;28;20114;-54
2022/07/21 01:21:59;;;;;;;8.23;4.60;;;;;;;;;;5093163;28;20421;-52
2022/07/21 01:24:29;;;;;;;7.20;4.25;;;;;;;;;;5093113;28;20055;-55
2022/07/21 01:26:58;;;;;;;7.82;4.90;;;;;;;;;;5092514;28;20071;-55
2022/07/21 01:29:28;;;;;;;6.75;4.63;;;;;;;;;;5092280;28;20087;-52
2022/07/21 01:31:57;;;;;;;8.73;4.75;;;;;;;;;;5093070;28;20056;-52
2022/07/21 01:34:25;;;;;;;9.43;4.95;;;;;;;;;;5095466;28;20048;-52
2022/07/21 01:36:55;;;;;;;8.43;4.63;;;;;;;;;;5096665;28;20071;-52
2022/07/21 01:42:11;;;;;;;7.63;4.45;;;;;;;;;;5109554;28;20549;-55
2022/07/21 01:44:41;;;;;;;8.35;4.60;;;;;;;;;;5096821;28;20047;-55
2022/07/21 01:47:08;;;;;;;6.35;4.50;;;;;;;;;;5096219;28;20472;-55
2022/07/21 01:49:38;;;;;;;8.98;4.55;;;;;;;;;;5096625;28;20044;-52
2022/07/21 01:52:08;;;;;;;8.98;5.25;;;;;;;;;;5086277;28;20067;-54
2022/07/21 01:54:45;;;;;;;7.60;4.60;;;;;;;;;;5075754;28;20381;-52
2022/07/21 01:57:15;;;;;;;9.27;5.03;;;;;;;;;;5076315;28;20087;-52
2022/07/21 01:59:45;;;;;;;9.63;4.90;;;;;;;;;;5076178;28;20052;-55
2022/07/21 02:02:13;;;;;;;10.55;4.57;;;;;;;;;;5075691;28;20052;-55
2022/07/21 02:04:41;;;;;;;7.40;4.65;;;;;;;;;;5075816;28;20481;-56
2022/07/21 02:07:09;;;;;;;7.07;4.70;;;;;;;;;;5094224;28;20052;-53
2022/07/21 02:09:51;;;;;;;10.35;5.35;;;;;;;;;;5096137;28;20083;-56
2022/07/21 02:12:19;;;;;;;6.38;4.38;;;;;;;;;;5096129;28;20056;-55
2022/07/21 02:14:46;;;;;;;8.65;5.03;;;;;;;;;;5081677;28;20056;-56
2022/07/21 02:17:14;;;;;;;8.43;4.32;;;;;;;;;;5094141;28;20056;-55
2022/07/21 02:19:42;;;;;;;9.52;4.88;;;;;;;;;;5084055;28;20043;-53
2022/07/21 02:22:09;;;;;;;8.05;4.88;;;;;;;;;;5095159;28;20075;-55
2022/07/21 02:24:37;;;;;;;8.35;4.43;;;;;;;;;;5095098;28;20047;-55
2022/07/21 02:27:07;;;;;;;10.95;5.72;;;;;;;;;;5094703;28;20109;-55
2022/07/21 02:29:37;;;;;;;8.48;4.93;;;;;;;;;;5095409;28;20105;-54
2022/07/21 02:32:05;;;;;;;9.80;4.93;;;;;;;;;;5095190;28;20051;-55
2022/07/21 02:34:33;;;;;;;7.40;4.75;;;;;;;;;;5094878;28;20404;-52
2022/07/21 02:37:03;;;;;;;7.82;4.78;;;;;;;;;;5088867;28;20334;-52
2022/07/21 02:39:30;;;;;;;7.82;4.95;;;;;;;;;;5111057;28;20116;-55
2022/07/21 02:42:01;;;;;;;8.70;5.00;;;;;;;;;;5111125;28;20052;-53
2022/07/21 02:44:36;;;;;;;6.90;4.93;;;;;;;;;;5095231;28;20066;-52
2022/07/21 02:47:04;;;;;;;7.95;4.75;;;;;;;;;;5095338;28;20127;-52
2022/07/21 02:49:31;;;;;;;9.45;4.88;;;;;;;;;;5095312;28;20084;-52
2022/07/21 02:51:59;;;;;;;7.55;4.82;;;;;;;;;;5095388;28;20044;-52
2022/07/21 02:54:27;;;;;;;7.35;4.93;;;;;;;;;;5095348;28;20063;-51
2022/07/21 02:56:58;;;;;;;12.25;5.60;;;;;;;;;;5095427;28;20124;-52
2022/07/21 02:59:26;;;;;;;8.88;4.80;;;;;;;;;;5087191;28;20057;-54
2022/07/21 03:01:55;;;;;;;9.55;5.57;;;;;;;;;;5079602;28;20054;-55
2022/07/21 03:04:24;;;;;;;8.65;5.38;;;;;;;;;;5095166;28;20048;-51
2022/07/21 03:06:52;;;;;;;8.80;5.60;;;;;;;;;;5094979;28;20508;-55
2022/07/21 03:09:18;;;;;;;12.07;5.68;;;;;;;;;;5095247;28;20058;-55
2022/07/21 03:11:46;;;;;;;9.75;5.25;;;;;;;;;;5094837;28;20059;-52
2022/07/21 03:14:16;;;;;;;8.45;5.65;;;;;;;;;;5094682;28;20435;-51
2022/07/21 03:16:44;;;;;;;9.15;5.07;;;;;;;;;;5095101;28;20075;-52
2022/07/21 03:19:20;;;;;;;8.02;5.60;;;;;;;;;;5094797;28;20048;-52
2022/07/21 03:21:50;;;;;;;13.43;5.68;;;;;;;;;;5094592;28;20040;-53
2022/07/21 03:24:20;;;;;;;9.27;5.47;;;;;;;;;;5093093;28;20052;-55
2022/07/21 03:26:52;;;;;;;12.45;4.93;;;;;;;;;;5094461;28;20053;-55
2022/07/21 03:29:22;;;;;;;11.00;5.88;;;;;;;;;;5093270;28;20502;-55
2022/07/21 03:31:49;;;;;;;12.43;6.00;;;;;;;;;;5094303;28;20048;-55
2022/07/21 03:34:26;;;;;;;8.65;5.18;;;;;;;;;;5094645;28;20048;-55
2022/07/21 03:36:55;;;;;;;9.10;5.70;;;;;;;;;;5088416;28;20530;-55
2022/07/21 03:39:25;;;;;;;13.15;5.80;;;;;;;;;;5107732;28;20062;-55
2022/07/21 03:41:53;;;;;;;12.50;5.80;;;;;;;;;;5109634;28;20061;-55
2022/07/21 03:44:21;;;;;;;9.93;5.68;;;;;;;;;;5090906;28;20044;-52
2022/07/21 03:46:49;;;;;;;14.48;5.88;;;;;;;;;;5086933;28;20135;-53
2022/07/21 03:49:20;;;;;;;11.82;5.65;;;;;;;;;;5086453;28;20054;-54
2022/07/21 03:51:50;;;;;;;10.95;6.22;;;;;;;;;;5073834;28;20059;-56
2022/07/21 03:54:19;;;;;;;10.90;5.85;;;;;;;;;;5074035;28;20449;-52
2022/07/21 03:56:50;;;;;;;11.88;6.22;;;;;;;;;;5073595;28;20146;-52
2022/07/21 03:59:18;;;;;;;9.30;5.80;;;;;;;;;;5088893;28;20812;-51
2022/07/21 04:01:47;;;;;;;11.30;6.38;;;;;;;;;;5093600;28;20063;-54
2022/07/21 04:04:17;;;;;;;15.07;5.93;;;;;;;;;;5093858;28;20052;-55
2022/07/21 04:06:53;;;;;;;10.73;6.57;;;;;;;;;;5093749;28;20651;-54
2022/07/21 04:09:22;;;;;;;14.00;6.38;;;;;;;;;;5093146;28;20102;-54
2022/07/21 04:11:52;;;;;;;12.98;6.43;;;;;;;;;;5093556;28;20484;-52
2022/07/21 04:14:23;;;;;;;11.73;6.28;;;;;;;;;;5093749;28;20063;-55
2022/07/21 04:16:49;;;;;;;12.13;6.30;;;;;;;;;;5093544;28;20048;-52
2022/07/21 04:19:18;;;;;;;13.25;6.50;;;;;;;;;;5093100;28;20488;-54
2022/07/21 04:21:47;;;;;;;14.98;6.30;;;;;;;;;;5093328;28;20044;-52
2022/07/21 04:24:16;;;;;;;14.10;6.80;;;;;;;;;;5093614;28;20047;-51
2022/07/21 04:26:46;;;;;;;13.52;6.82;;;;;;;;;;5092615;28;20052;-52
2022/07/21 04:29:13;;;;;;;15.85;6.80;;;;;;;;;;5093316;28;20052;-52
2022/07/21 04:31:43;;;;;;;11.27;6.10;;;;;;;;;;5092144;28;20479;-52
2022/07/21 04:34:11;;;;;;;10.43;5.88;;;;;;;;;;5071973;28;20369;-52
2022/07/21 04:36:41;;;;;;;9.40;5.85;;;;;;;;;;5072501;28;20075;-52
2022/07/21 04:39:12;;;;;;;7.75;5.47;;;;;;;;;;5102951;28;20441;-53
2022/07/21 04:41:40;;;;;;;12.27;6.28;;;;;;;;;;5097195;28;20052;-54
2022/07/21 04:44:08;;;;;;;15.55;6.13;;;;;;;;;;5093595;28;20123;-52
2022/07/21 04:46:45;;;;;;;10.73;5.28;;;;;;;;;;5092985;28;20052;-52
2022/07/21 04:49:15;;;;;;;9.77;6.05;;;;;;;;;;5093529;28;20124;-52
2022/07/21 04:51:45;;;;;;;8.68;5.60;;;;;;;;;;5093532;28;20052;-53
2022/07/21 04:54:16;;;;;;;9.88;5.78;;;;;;;;;;5093089;28;20117;-56
2022/07/21 04:56:44;;;;;;;12.50;6.10;;;;;;;;;;5092899;28;20059;-52
2022/07/21 04:59:12;;;;;;;13.02;6.20;;;;;;;;;;5093654;28;20056;-53
2022/07/21 05:01:42;;;;;;;8.60;4.97;;;;;;;;;;5093179;28;20048;-55
2022/07/21 05:04:13;;;;;;;9.88;5.25;;;;;;;;;;5093207;28;20472;-54
2022/07/21 05:06:42;;;;;;;9.48;6.30;;;;;;;;;;5093329;28;20051;-55
2022/07/21 05:09:20;;;;;;;16.70;6.35;;;;;;;;;;5095352;28;20062;-56
2022/07/21 05:11:56;;;;;;;17.23;6.28;;;;;;;;;;5097199;28;20044;-51
2022/07/21 05:14:26;;;;;;;11.15;5.85;;;;;;;;;;5096910;28;20051;-55
2022/07/21 05:16:55;;;;;;;13.00;6.03;;;;;;;;;;5097330;28;20052;-55
2022/07/21 05:19:24;;;;;;;11.10;5.53;;;;;;;;;;5097284;28;20051;-54
2022/07/21 05:21:54;;;;;;;10.38;5.68;;;;;;;;;;5097091;28;20097;-54
2022/07/21 05:24:24;;;;;;;12.38;5.47;;;;;;;;;;5096872;28;20048;-55
2022/07/21 05:27:02;;;;;;;10.63;5.22;;;;;;;;;;5096146;28;20402;-56
2022/07/21 05:29:30;;;;;;;21.70;5.95;;;;;;;;;;5096653;28;20056;-54
2022/07/21 05:32:00;;;;;;;6.43;4.85;;;;;;;;;;5096594;28;20526;-55
2022/07/21 05:34:29;;;;;;;8.38;5.05;;;;;;;;;;5096954;28;20132;-56
2022/07/21 05:36:56;;;;;;;10.20;5.38;;;;;;;;;;5096605;28;20044;-55
2022/07/21 05:39:25;;;;;;;10.80;5.18;;;;;;;;;;5113512;28;20511;-52
2022/07/21 05:41:57;;;;;;;10.65;4.95;;;;;;;;;;5112897;28;20051;-55
2022/07/21 05:44:24;;;;;;;10.32;5.15;;;;;;;;;;5096524;28;20525;-52
2022/07/21 05:47:00;;;;;;;7.10;4.85;;;;;;;;;;5095955;28;20056;-54
2022/07/21 05:49:29;;;;;;;10.10;4.55;;;;;;;;;;5096375;28;20460;-53
2022/07/21 05:51:56;;;;;;;7.50;4.55;;;;;;;;;;5096270;28;20048;-54
2022/07/21 05:54:25;;;;;;;10.93;5.22;;;;;;;;;;5096127;28;20469;-54
2022/07/21 05:56:55;;;;;;;10.95;4.70;;;;;;;;;;5074736;28;20135;-52
2022/07/21 05:59:23;;;;;;;11.75;4.90;;;;;;;;;;5075983;28;20387;-52
2022/07/21 06:01:53;;;;;;;17.63;5.88;;;;;;;;;;5088680;28;20059;-57
2022/07/21 06:04:23;;;;;;;34.75;6.10;;;;;;;;;;5078981;28;20052;-56
2022/07/21 06:06:53;;;;;;;9.80;4.75;;;;;;;;;;5091885;28;20123;-57
2022/07/21 06:09:21;;;;;;;10.77;4.20;;;;;;;;;;5083379;28;20135;-56
2022/07/21 06:11:51;;;;;;;11.52;4.47;;;;;;;;;;5077815;28;20045;-55
2022/07/21 06:14:23;;;;;;;6.60;3.85;;;;;;;;;;5094945;28;20044;-55
2022/07/21 06:16:50;;;;;;;8.90;4.03;;;;;;;;;;5080577;28;20049;-56
2022/07/21 06:19:16;;;;;;;6.18;3.90;;;;;;;;;;5076914;28;20469;-56
2022/07/21 06:21:47;;;;;;;9.82;4.60;;;;;;;;;;5089850;28;20048;-55
2022/07/21 06:24:13;;;;;;;7.70;4.25;;;;;;;;;;5079833;28;20090;-59
2022/07/21 06:26:40;;;;;;;25.70;5.03;;;;;;;;;;5091974;28;20049;-55
2022/07/21 06:29:07;;;;;;;6.60;4.05;;;;;;;;;;5083768;28;20048;-56
2022/07/21 06:31:37;;;;;;;18.75;4.25;;;;;;;;;;5095819;28;20054;-56
2022/07/21 06:34:06;;;;;;;8.30;3.97;;;;;;;;;;5095405;28;20044;-58
2022/07/21 06:36:42;;;;;;;8.13;4.07;;;;;;;;;;5094762;28;20143;-57
2022/07/21 06:39:12;;;;;;;7.40;3.90;;;;;;;;;;5110029;28;20128;-56
2022/07/21 06:41:39;;;;;;;11.95;4.18;;;;;;;;;;5112303;28;20545;-57
2022/07/21 06:44:06;;;;;;;10.48;4.13;;;;;;;;;;5095150;28;20052;-56
2022/07/21 06:46:35;;;;;;;42.95;5.63;;;;;;;;;;5098349;28;20062;-57
2022/07/21 06:49:10;;;;;;;6.95;3.75;;;;;;;;;;5114890;28;20035;-56
2022/07/21 06:51:38;;;;;;;14.18;3.70;;;;;;;;;;5115573;28;20043;-55
2022/07/21 06:54:07;;;;;;;6.80;3.70;;;;;;;;;;5096015;28;20036;-54
2022/07/21 06:56:35;;;;;;;12.55;4.15;;;;;;;;;;5105570;28;20079;-56
2022/07/21 06:59:06;;;;;;;18.65;5.25;;;;;;;;;;5098835;28;20047;-54
2022/07/21 07:01:36;;;;;;;10.55;4.10;;;;;;;;;;5108393;28;20075;-56
2022/07/21 07:04:13;;;;;;;8.05;3.75;;;;;;;;;;5094855;28;20142;-55
2022/07/21 07:06:44;;;;;;;6.30;4.05;;;;;;;;;;5094599;28;20072;-56
2022/07/21 07:09:12;;;;;;;8.32;3.97;;;;;;;;;;5105055;28;20079;-56
2022/07/21 07:11:51;;;;;;;6.65;3.60;;;;;;;;;;5095133;28;20056;-56
2022/07/21 07:14:22;;;;;;;6.95;3.80;;;;;;;;;;5094581;28;20101;-52
2022/07/21 07:16:52;;;;;;;8.13;4.15;;;;;;;;;;5093806;28;20415;-54
2022/07/21 07:19:20;;;;;;;11.80;3.95;;;;;;;;;;5093674;28;20067;-55
2022/07/21 07:21:47;;;;;;;6.50;3.90;;;;;;;;;;5091236;28;20044;-53
2022/07/21 07:24:24;;;;;;;8.20;3.53;;;;;;;;;;5091344;28;20052;-54
2022/07/21 07:26:52;;;;;;;7.05;3.58;;;;;;;;;;5092271;28;20056;-56
2022/07/21 07:29:20;;;;;;;8.07;4.05;;;;;;;;;;5101874;28;20142;-56
2022/07/21 07:31:48;;;;;;;9.10;4.43;;;;;;;;;;5112970;28;20055;-55
2022/07/21 07:34:14;;;;;;;10.35;4.00;;;;;;;;;;5114524;28;20059;-55
2022/07/21 07:36:46;;;;;;;7.38;3.80;;;;;;;;;;5114690;28;20400;-56
2022/07/21 07:39:15;;;;;;;6.72;4.28;;;;;;;;;;5096851;28;20116;-56
2022/07/21 07:41:43;;;;;;;8.32;3.97;;;;;;;;;;5093684;28;20040;-55
2022/07/21 07:44:13;;;;;;;12.02;3.63;;;;;;;;;;5093898;28;20067;-56
2022/07/21 07:46:40;;;;;;;10.68;4.50;;;;;;;;;;5095253;28;20051;-56
2022/07/21 07:49:08;;;;;;;7.38;4.88;;;;;;;;;;5112539;28;20054;-56
2022/07/21 07:51:38;;;;;;;6.93;4.10;;;;;;;;;;5112779;28;20043;-55
2022/07/21 07:54:21;;;;;;;9.75;4.60;;;;;;;;;;5089265;28;20109;-56
2022/07/21 07:56:50;;;;;;;6.93;3.78;;;;;;;;;;5094594;28;20051;-56
2022/07/21 07:59:17;;;;;;;8.15;4.03;;;;;;;;;;5102902;28;20126;-57
2022/07/21 08:01:44;;;;;;;9.88;4.05;;;;;;;;;;5093468;28;20059;-55
2022/07/21 08:04:14;;;;;;;12.63;4.68;;;;;;;;;;5089825;28;20484;-56
2022/07/21 08:06:44;;;;;;;7.38;3.92;;;;;;;;;;5091138;28;20056;-55
2022/07/21 08:09:25;;;;;;;11.85;4.20;;;;;;;;;;5088199;28;20492;-55
2022/07/21 08:11:55;;;;;;;8.52;4.13;;;;;;;;;;5091491;28;20040;-55
2022/07/21 08:14:22;;;;;;;6.68;3.83;;;;;;;;;;5092409;28;20048;-58
2022/07/21 08:16:49;;;;;;;9.85;3.83;;;;;;;;;;5092905;28;20058;-56
2022/07/21 08:19:17;;;;;;;5.88;3.55;;;;;;;;;;5101862;28;20053;-53
2022/07/21 08:21:46;;;;;;;6.10;4.07;;;;;;;;;;5094964;28;20376;-54
2022/07/21 08:24:18;;;;;;;8.60;3.83;;;;;;;;;;5092974;28;20054;-57
2022/07/21 08:26:47;;;;;;;15.65;4.50;;;;;;;;;;5106498;28;20056;-58
2022/07/21 08:29:18;;;;;;;8.90;3.70;;;;;;;;;;5113570;28;20081;-56
2022/07/21 08:31:47;;;;;;;8.05;3.95;;;;;;;;;;5093794;28;20051;-55
2022/07/21 08:34:17;;;;;;;8.57;4.05;;;;;;;;;;5092659;28;20139;-58
2022/07/21 08:36:47;;;;;;;5.70;3.78;;;;;;;;;;5109408;28;20043;-58
2022/07/21 08:39:17;;;;;;;9.88;3.90;;;;;;;;;;5096733;28;20072;-57
2022/07/21 08:41:46;;;;;;;10.65;4.38;;;;;;;;;;5092946;28;20048;-56
2022/07/21 08:44:14;;;;;;;7.60;3.58;;;;;;;;;;5097160;28;20457;-59
2022/07/21 08:46:43;;;;;;;4.68;3.42;;;;;;;;;;5117634;28;20047;-60
2022/07/21 08:49:11;;;;;;;6.03;3.35;;;;;;;;;;5109379;28;20101;-60
2022/07/21 08:51:37;;;;;;;10.68;3.80;;;;;;;;;;5109095;28;20051;-58
2022/07/21 08:54:06;;;;;;;9.05;3.83;;;;;;;;;;5096688;28;20055;-57
2022/07/21 08:56:43;;;;;;;19.13;4.60;;;;;;;;;;5096004;28;20040;-58
2022/07/21 08:59:09;;;;;;;6.38;3.28;;;;;;;;;;5093486;28;20123;-57
2022/07/21 09:01:39;;;;;;;6.07;3.83;;;;;;;;;;5098766;28;20052;-56
2022/07/21 09:04:24;;;;;;;53.03;6.38;;;;;;;;;;5101193;28;20048;-58
2022/07/21 09:06:56;;;;;;;7.60;3.72;;;;;;;;;;5103804;27;20048;-56
2022/07/21 09:09:26;;;;;;;5.22;3.50;;;;;;;;;;5093344;28;20192;-58
2022/07/21 09:11:58;;;;;;;10.05;3.70;;;;;;;;;;5093604;28;20075;-56
2022/07/21 09:14:26;;;;;;;9.65;3.17;;;;;;;;;;5104584;28;20055;-56
2022/07/21 09:16:55;;;;;;;7.45;3.97;;;;;;;;;;5098794;28;20048;-58
2022/07/21 09:19:31;;;;;;;10.95;4.30;;;;;;;;;;5093749;28;20078;-57
2022/07/21 09:22:00;;;;;;;9.77;3.80;;;;;;;;;;5089211;28;20461;-55
2022/07/21 09:24:29;;;;;;;6.78;3.10;;;;;;;;;;5094411;28;20502;-55
2022/07/21 09:27:03;;;;;;;7.88;4.05;;;;;;;;;;5093904;28;20063;-56
2022/07/21 09:29:35;;;;;;;9.18;4.10;;;;;;;;;;5093962;28;20071;-54
2022/07/21 09:32:18;;;;;;;5.72;3.50;;;;;;;;;;5094509;28;20052;-57
2022/07/21 09:34:46;;;;;;;7.32;3.58;;;;;;;;;;5104520;28;20127;-55
2022/07/21 09:37:14;;;;;;;6.43;3.90;;;;;;;;;;5094221;28;20101;-56
2022/07/21 09:39:46;;;;;;;4.60;3.53;;;;;;;;;;5090802;28;20487;-57
2022/07/21 09:42:17;;;;;;;5.85;3.15;;;;;;;;;;5090410;28;20044;-56
2022/07/21 09:44:46;;;;;;;6.05;3.70;;;;;;;;;;5116090;28;20051;-56
2022/07/21 09:47:17;;;;;;;6.20;3.20;;;;;;;;;;5116463;28;20104;-57
2022/07/21 09:49:48;;;;;;;11.23;3.60;;;;;;;;;;5116560;28;20054;-57
2022/07/21 09:52:23;;;;;;;14.68;3.65;;;;;;;;;;5115797;28;20748;-57
2022/07/21 09:54:50;;;;;;;8.18;4.05;;;;;;;;;;5080800;28;20109;-56
2022/07/21 09:57:18;;;;;;;6.53;3.80;;;;;;;;;;5095846;28;20048;-58
2022/07/21 09:59:48;;;;;;;726.05;69.45;;;;;;;;;;5095566;28;20059;-57
2022/07/21 10:02:16;;;;;;;12.18;4.15;;;;;;;;;;5098393;28;20044;-54
2022/07/21 10:04:45;;;;;;;4.13;3.15;;;;;;;;;;5112292;28;20044;-57
2022/07/21 10:07:12;;;;;;;13.23;4.10;;;;;;;;;;5095420;28;20067;-57
2022/07/21 10:09:41;;;;;;;10.90;3.90;;;;;;;;;;5095713;28;20131;-57
2022/07/21 10:12:11;;;;;;;5.72;3.35;;;;;;;;;;5099682;28;20476;-58
2022/07/21 10:14:44;;;;;;;5.88;3.05;;;;;;;;;;5079130;28;20052;-56
2022/07/21 10:17:11;;;;;;;11.75;4.03;;;;;;;;;;5093155;28;20052;-55
2022/07/21 10:19:42;;;;;;;23.27;4.63;;;;;;;;;;5095145;28;20052;-57
2022/07/21 10:22:16;;;;;;;8.50;3.30;;;;;;;;;;5102987;28;20063;-56
2022/07/21 10:24:45;;;;;;;6.53;3.25;;;;;;;;;;5115682;28;20047;-57
2022/07/21 10:27:13;;;;;;;6.15;3.65;;;;;;;;;;5107297;28;20080;-58
2022/07/21 10:29:54;;;;;;;5.78;3.65;;;;;;;;;;5107426;28;20055;-58
2022/07/21 10:32:26;;;;;;;6.45;3.63;;;;;;;;;;5090996;28;20044;-59
2022/07/21 10:34:55;;;;;;;6.97;3.63;;;;;;;;;;5095241;28;20151;-55
2022/07/21 10:37:40;;;;;;;5.82;3.30;;;;;;;;;;5090043;28;20290;-56
2022/07/21 10:40:09;;;;;;;13.60;3.97;;;;;;;;;;5090981;28;20059;-59
2022/07/21 10:42:38;;;;;;;4.97;3.63;;;;;;;;;;5095669;28;20127;-56
2022/07/21 10:45:21;;;;;;;6.22;3.35;;;;;;;;;;5094247;28;20456;-57
2022/07/21 10:47:59;;;;;;;4.60;3.10;;;;;;;;;;5095098;28;20052;-57
2022/07/21 10:50:31;;;;;;;5.97;3.50;;;;;;;;;;5094519;28;20074;-59
2022/07/21 10:53:02;;;;;;;47.25;6.30;;;;;;;;;;5112192;28;20050;-54
2022/07/21 10:55:34;;;;;;;7.13;3.78;;;;;;;;;;5109873;28;20486;-56
2022/07/21 10:58:11;;;;;;;6.57;3.63;;;;;;;;;;5092501;28;20485;-57
2022/07/21 11:00:46;;;;;;;6.10;3.25;;;;;;;;;;5097163;28;20048;-58
2022/07/21 11:03:18;;;;;;;6.90;3.47;;;;;;;;;;5105273;28;20536;-57
2022/07/21 11:06:03;;;;;;;5.78;3.58;;;;;;;;;;5085024;28;20087;-58
2022/07/21 11:08:32;;;;;;;6.03;3.50;;;;;;;;;;5093978;28;20048;-58
2022/07/21 11:11:10;;;;;;;5.43;3.20;;;;;;;;;;5098027;28;20821;-58
2022/07/21 11:13:52;;;;;;;6.00;3.38;;;;;;;;;;5092177;28;20492;-57
2022/07/21 11:16:20;;;;;;;9.15;3.30;;;;;;;;;;5089622;28;20048;-58
2022/07/21 11:18:47;;;;;;;3.97;2.95;;;;;;;;;;5091727;28;20044;-57
2022/07/21 11:21:24;;;;;;;4.63;3.58;;;;;;;;;;5109008;28;20055;-56
2022/07/21 11:23:54;;;;;;;4.40;3.35;;;;;;;;;;5114189;28;20740;-58
2022/07/21 11:26:25;;;;;;;11.65;4.30;;;;;;;;;;5113984;28;20091;-57
2022/07/21 11:29:05;;;;;;;5.28;3.30;;;;;;;;;;5113849;28;20070;-57
2022/07/21 11:31:47;;;;;;;7.88;3.15;;;;;;;;;;5108189;28;20048;-57
2022/07/21 11:34:26;;;;;;;5.57;3.38;;;;;;;;;;5093642;28;20048;-58
2022/07/21 11:37:02;;;;;;;6.72;3.47;;;;;;;;;;5093868;28;20059;-57
2022/07/21 11:42:18;;;;;;;10.02;3.72;;;;;;;;;;5093975;28;20048;-56
2022/07/21 11:44:47;;;;;;;5.22;3.08;;;;;;;;;;5093935;28;20048;-52
2022/07/21 11:47:31;;;;;;;11.40;3.22;;;;;;;;;;5093944;28;20050;-55
2022/07/21 11:50:00;;;;;;;56.65;6.28;;;;;;;;;;5110350;28;20055;-57
2022/07/21 11:52:27;;;;;;;6.25;3.03;;;;;;;;;;5109095;28;20384;-54
2022/07/21 11:54:58;;;;;;;9.57;3.80;;;;;;;;;;5113755;28;20403;-58
2022/07/21 11:57:27;;;;;;;4.63;2.72;;;;;;;;;;5104175;28;20118;-55
2022/07/21 11:59:55;;;;;;;6.63;2.92;;;;;;;;;;5092623;28;20055;-57
2022/07/21 12:02:26;;;;;;;7.13;2.58;;;;;;;;;;5092558;28;20593;-57
2022/07/21 12:04:54;;;;;;;16.48;3.63;;;;;;;;;;5081856;28;20473;-59
2022/07/21 12:07:24;;;;;;;6.47;3.20;;;;;;;;;;5080336;28;20056;-56
2022/07/21 12:09:52;;;;;;;4.78;2.92;;;;;;;;;;5090831;28;20056;-54
2022/07/21 12:12:36;;;;;;;5.65;2.90;;;;;;;;;;5081599;28;20058;-54
2022/07/21 12:15:07;;;;;;;;;;;;;;;;;;5085983;28;20056;-54
2022/07/21 12:17:43;;;;;;;4.05;3.38;;;;;;;;;;5081417;28;19938;-53
2022/07/21 12:20:13;;;;;;;5.63;3.10;;;;;;;;;;5081322;28;20054;-60
2022/07/21 12:22:44;;;;;;;5.20;2.90;;;;;;;;;;5082148;28;20090;-61
2022/07/21 12:25:14;;;;;;;6.43;3.33;;;;;;;;;;5084769;28;20063;-55
2022/07/21 12:27:45;;;;;;;8.77;3.30;;;;;;;;;;5102049;28;20065;-56
2022/07/21 12:30:28;;;;;;;7.75;3.10;;;;;;;;;;5113407;28;20062;-57
2022/07/21 12:33:08;;;;;;;12.90;3.83;;;;;;;;;;5111302;28;20053;-55
2022/07/21 12:35:38;;;;;;;5.18;3.13;;;;;;;;;;5093198;28;20060;-58
2022/07/21 12:38:06;;;;;;;59.80;7.20;;;;;;;;;;5105197;28;20127;-51
2022/07/21 12:40:40;;;;;;;9.63;3.55;;;;;;;;;;5093329;28;20134;-59
2022/07/21 12:43:10;;;;;;;6.50;3.10;;;;;;;;;;5077365;28;20138;-61
2022/07/21 12:45:52;;;;;;;6.85;2.67;;;;;;;;;;5092127;28;20105;-60
2022/07/21 12:48:29;;;;;;;7.90;3.42;;;;;;;;;;5102446;28;20071;-56
2022/07/21 12:50:59;;;;;;;7.28;3.22;;;;;;;;;;5092969;28;20477;-58
2022/07/21 12:53:27;;;;;;;4.30;3.15;;;;;;;;;;5093011;28;20066;-57
2022/07/21 12:55:53;;;;;;;7.10;3.17;;;;;;;;;;5095641;28;20063;-55
2022/07/21 12:58:22;;;;;;;7.32;3.42;;;;;;;;;;5113261;28;20071;-57
2022/07/21 13:00:52;;;;;;;8.90;3.83;;;;;;;;;;5112830;28;20062;-57
2022/07/21 13:03:22;;;;;;;7.25;3.78;;;;;;;;;;5112977;28;20075;-58
2022/07/21 13:05:50;;;;;;;6.38;3.42;;;;;;;;;;5097719;28;20048;-56
2022/07/21 13:08:20;;;;;;;5.05;3.30;;;;;;;;;;5112904;28;20043;-58
2022/07/21 13:10:46;;;;;;;18.95;4.90;;;;;;;;;;5112453;28;20486;-59
2022/07/21 13:13:16;;;;;;;11.27;3.78;;;;;;;;;;5108111;28;20048;-55
2022/07/21 13:15:43;;;;;;;10.48;3.42;;;;;;;;;;5085858;28;20418;-54
2022/07/21 13:18:12;;;;;;;6.70;3.67;;;;;;;;;;5092358;28;20051;-54
2022/07/21 13:20:57;;;;;;;5.50;3.40;;;;;;;;;;5091727;28;20057;-56
2022/07/21 13:23:24;;;;;;;6.50;3.38;;;;;;;;;;5092578;28;20052;-56
2022/07/21 13:25:58;;;;;;;6.80;3.80;;;;;;;;;;5089796;28;20102;-59
2022/07/21 13:28:29;;;;;;;7.22;3.20;;;;;;;;;;5090681;28;20137;-58
2022/07/21 13:30:59;;;;;;;6.25;3.40;;;;;;;;;;5100241;28;20078;-58
2022/07/21 13:33:26;;;;;;;8.40;4.03;;;;;;;;;;5093792;28;20218;-59
2022/07/21 13:36:10;;;;;;;8.25;3.50;;;;;;;;;;5116250;28;20063;-52
2022/07/21 13:38:40;;;;;;;6.25;3.55;;;;;;;;;;5105999;28;20062;-57
2022/07/21 13:41:09;;;;;;;6.85;3.90;;;;;;;;;;5087117;28;20511;-56
2022/07/21 13:43:39;;;;;;;7.75;3.50;;;;;;;;;;5099979;28;20051;-58
2022/07/21 13:46:09;;;;;;;5.88;3.45;;;;;;;;;;5116362;28;20048;-55
2022/07/21 13:48:36;;;;;;;12.63;4.10;;;;;;;;;;5115693;28;20053;-56
2022/07/21 13:51:05;;;;;;;7.32;3.58;;;;;;;;;;5105404;28;20040;-54
2022/07/21 13:53:35;;;;;;;9.43;3.80;;;;;;;;;;5082600;28;20048;-57
2022/07/21 13:56:02;;;;;;;15.02;3.97;;;;;;;;;;5086354;28;20048;-58
2022/07/21 13:58:32;;;;;;;4.28;3.00;;;;;;;;;;5091850;28;20044;-56
2022/07/21 14:00:59;;;;;;;6.80;3.80;;;;;;;;;;5082005;28;20483;-51
2022/07/21 14:03:26;;;;;;;11.68;3.58;;;;;;;;;;5083352;28;20090;-55
2022/07/21 14:05:55;;;;;;;8.57;3.83;;;;;;;;;;5087948;28;20055;-58
2022/07/21 14:08:25;;;;;;;8.77;3.78;;;;;;;;;;5090855;28;20048;-57
2022/07/21 14:10:54;;;;;;;12.93;4.20;;;;;;;;;;5094922;28;20055;-57
2022/07/21 14:13:22;;;;;;;7.82;3.40;;;;;;;;;;5095725;28;20074;-58
2022/07/21 14:15:52;;;;;;;8.82;3.38;;;;;;;;;;5090211;28;20055;-52
2022/07/21 14:18:18;;;;;;;8.48;3.97;;;;;;;;;;5079915;28;20040;-58
2022/07/21 14:20:51;;;;;;;9.77;3.13;;;;;;;;;;5094945;28;20511;-56
2022/07/21 14:23:19;;;;;;;7.53;3.50;;;;;;;;;;5096210;28;20122;-57
2022/07/21 14:25:55;;;;;;;7.05;3.97;;;;;;;;;;5115462;28;20047;-60
2022/07/21 14:28:25;;;;;;;7.85;3.47;;;;;;;;;;5116020;28;20051;-58
2022/07/21 14:30:55;;;;;;;7.80;3.58;;;;;;;;;;5101294;28;20058;-58
2022/07/21 14:33:24;;;;;;;10.32;4.03;;;;;;;;;;5099134;28;20119;-59
2022/07/21 14:35:52;;;;;;;7.70;3.67;;;;;;;;;;5104701;28;20127;-60
2022/07/21 14:38:22;;;;;;;7.68;3.80;;;;;;;;;;5102826;28;20051;-59
2022/07/21 14:40:55;;;;;;;7.00;3.40;;;;;;;;;;5107588;28;20126;-59
2022/07/21 14:43:25;;;;;;;5.38;3.65;;;;;;;;;;5091470;28;20063;-59
2022/07/21 14:45:53;;;;;;;12.35;4.22;;;;;;;;;;5089538;28;20052;-59
2022/07/21 14:51:02;;;;;;;8.45;3.75;;;;;;;;;;5076400;28;20052;-60
2022/07/21 14:53:32;;;;;;;6.97;3.50;;;;;;;;;;5094674;28;20596;-60
2022/07/21 14:56:14;;;;;;;10.10;3.85;;;;;;;;;;5095286;28;20048;-60
2022/07/21 14:58:53;;;;;;;5.65;3.00;;;;;;;;;;5081038;28;20464;-59
2022/07/21 15:01:20;;;;;;;4.85;3.08;;;;;;;;;;5074438;28;20052;-60
2022/07/21 15:03:50;;;;;;;5.43;3.38;;;;;;;;;;5074793;28;20063;-59
2022/07/21 15:06:24;;;;;;;13.15;3.90;;;;;;;;;;5074479;28;20453;-60
2022/07/21 15:08:54;;;;;;;11.65;3.40;;;;;;;;;;5073686;28;20063;-59
2022/07/21 15:11:35;;;;;;;6.00;3.53;;;;;;;;;;5090399;28;20434;-60